Pombo Uno — EAMX — position and weather

sailwx.info

Track history (hours):
 
Tides and Currents Weather Stations Pressure Air Temp Water Temp Dewpoint Dewpoint Depression Visibility Wind Speed Wind Dir Waves Ship Positions

Pombo Uno

Last reported at 2017-Mar-23 05:32 UTC. Time now 2017-Mar-23 10:40 UTC.
Position N 43°46' W 005°29'.

Length 30 m.

Type: Fishing. MMSI: 224022170.

Date/timePositionNaut miles runAvg speedWind from/ knotsBaromVisibWave heightAir tempDewpointWater temp
2017-Mar-23 05:32N 43°46' W 005°29'10 9.4
2017-Mar-23 04:32N 43°38' W 005°36'6 6.2
2017-Mar-23 03:33N 43°33' W 005°42'0 0.0
2017-Mar-23 02:33N 43°33' W 005°42'0 0.0
2017-Mar-23 01:33N 43°33' W 005°42'0 0.0
2017-Mar-22 20:12N 43°33' W 005°42'0 0.0
2017-Mar-22 19:33N 43°33' W 005°42'0 0.0
2017-Mar-22 18:33N 43°33' W 005°42'1 1.0
2017-Mar-22 17:33N 43°34' W 005°41'9 8.8
2017-Mar-22 16:33N 43°41' W 005°48'71 5.0
2017-Mar-22 02:23N 43°48' W 007°26'8 9.1
2017-Mar-22 01:34N 43°44' W 007°35'3 2.9
2017-Mar-22 00:34N 43°41' W 007°36'0 0.0
2017-Mar-21 23:32N 43°41' W 007°36'0 0.0
2017-Mar-21 22:33N 43°41' W 007°36'0 0.0
2017-Mar-21 21:33N 43°41' W 007°36'0 0.2
2017-Mar-21 20:33N 43°41' W 007°36'1 0.7
2017-Mar-21 19:34N 43°41' W 007°36'9 9.2
2017-Mar-21 18:33N 43°51' W 007°37'  
Track history (hours):
 
Tides and Currents Weather Stations Pressure Air Temp Water Temp Dewpoint Dewpoint Depression Visibility Wind Speed Wind Dir Waves Ship Positions

Pombo Uno

Last reported at 2017-Mar-23 05:32 UTC. Time now 2017-Mar-23 10:40 UTC.
Position N 43°46' W 005°29'.

Length 30 m.

Type: Fishing. MMSI: 224022170.

Date/timePositionNaut miles runAvg speedWind from/ knotsBaromVisibWave heightAir tempDewpointWater temp
2017-Mar-23 05:32N 43°46' W 005°29'10 9.4
2017-Mar-23 04:32N 43°38' W 005°36'6 6.2
2017-Mar-23 03:33N 43°33' W 005°42'0 0.0
2017-Mar-23 02:33N 43°33' W 005°42'0 0.0
2017-Mar-23 01:33N 43°33' W 005°42'0 0.0
2017-Mar-22 20:12N 43°33' W 005°42'0 0.0
2017-Mar-22 19:33N 43°33' W 005°42'0 0.0
2017-Mar-22 18:33N 43°33' W 005°42'1 1.0
2017-Mar-22 17:33N 43°34' W 005°41'9 8.8
2017-Mar-22 16:33N 43°41' W 005°48'71 5.0
2017-Mar-22 02:23N 43°48' W 007°26'8 9.1
2017-Mar-22 01:34N 43°44' W 007°35'3 2.9
2017-Mar-22 00:34N 43°41' W 007°36'0 0.0
2017-Mar-21 23:32N 43°41' W 007°36'0 0.0
2017-Mar-21 22:33N 43°41' W 007°36'0 0.0
2017-Mar-21 21:33N 43°41' W 007°36'0 0.2
2017-Mar-21 20:33N 43°41' W 007°36'1 0.7
2017-Mar-21 19:34N 43°41' W 007°36'9 9.2
2017-Mar-21 18:33N 43°51' W 007°37'  

Dump ship's entire track history